sensor_id;sensor_type;location;lat;lon;timestamp;P1;durP1;ratioP1;P2;durP2;ratioP2
12912;SDS011;6524;51.368;11.984;2024-03-07T00:04:30;27.20;;;18.35;;
12912;SDS011;6524;51.368;11.984;2024-03-07T00:09:34;25.42;;;17.75;;
12912;SDS011;6524;51.368;11.984;2024-03-07T00:14:34;28.38;;;19.65;;
12912;SDS011;6524;51.368;11.984;2024-03-07T00:19:35;25.38;;;18.10;;
12912;SDS011;6524;51.368;11.984;2024-03-07T00:24:35;26.90;;;19.23;;
12912;SDS011;6524;51.368;11.984;2024-03-07T00:29:37;27.55;;;18.75;;
12912;SDS011;6524;51.368;11.984;2024-03-07T00:34:37;27.73;;;18.73;;
12912;SDS011;6524;51.368;11.984;2024-03-07T00:39:39;25.77;;;17.40;;
12912;SDS011;6524;51.368;11.984;2024-03-07T00:44:40;25.58;;;17.58;;
12912;SDS011;6524;51.368;11.984;2024-03-07T00:49:40;24.92;;;17.70;;
12912;SDS011;6524;51.368;11.984;2024-03-07T00:54:42;27.87;;;19.10;;
12912;SDS011;6524;51.368;11.984;2024-03-07T00:59:42;27.80;;;18.55;;
12912;SDS011;6524;51.368;11.984;2024-03-07T05:03:51;56.25;;;29.80;;
12912;SDS011;6524;51.368;11.984;2024-03-07T05:08:52;52.80;;;30.40;;
12912;SDS011;6524;51.368;11.984;2024-03-07T05:13:53;57.80;;;29.77;;
12912;SDS011;6524;51.368;11.984;2024-03-07T05:18:53;57.97;;;29.55;;
12912;SDS011;6524;51.368;11.984;2024-03-07T05:23:55;55.00;;;30.65;;
12912;SDS011;6524;51.368;11.984;2024-03-07T05:28:55;62.50;;;31.73;;
12912;SDS011;6524;51.368;11.984;2024-03-07T05:33:55;55.05;;;29.00;;
12912;SDS011;6524;51.368;11.984;2024-03-07T05:38:56;58.38;;;31.67;;
12912;SDS011;6524;51.368;11.984;2024-03-07T05:43:56;58.20;;;31.25;;
12912;SDS011;6524;51.368;11.984;2024-03-07T05:48:56;53.57;;;30.60;;
12912;SDS011;6524;51.368;11.984;2024-03-07T05:53:57;59.87;;;32.20;;
12912;SDS011;6524;51.368;11.984;2024-03-07T05:58:57;59.50;;;32.00;;
12912;SDS011;6524;51.368;11.984;2024-03-07T06:03:58;55.77;;;30.40;;
12912;SDS011;6524;51.368;11.984;2024-03-07T06:09:00;56.03;;;30.93;;
12912;SDS011;6524;51.368;11.984;2024-03-07T06:14:07;51.63;;;31.52;;
12912;SDS011;6524;51.368;11.984;2024-03-07T06:19:08;50.13;;;29.07;;
12912;SDS011;6524;51.368;11.984;2024-03-07T06:24:08;49.63;;;29.42;;
12912;SDS011;6524;51.368;11.984;2024-03-07T06:29:14;46.28;;;29.33;;
12912;SDS011;6524;51.368;11.984;2024-03-07T06:34:18;45.30;;;28.10;;
12912;SDS011;6524;51.368;11.984;2024-03-07T06:39:19;43.38;;;27.60;;
12912;SDS011;6524;51.368;11.984;2024-03-07T06:44:22;43.03;;;27.07;;
12912;SDS011;6524;51.368;11.984;2024-03-07T06:49:23;40.45;;;25.67;;
12912;SDS011;6524;51.368;11.984;2024-03-07T06:54:24;44.43;;;27.27;;
12912;SDS011;6524;51.368;11.984;2024-03-07T06:59:24;42.70;;;26.50;;
12912;SDS011;6524;51.368;11.984;2024-03-07T07:04:25;42.27;;;26.87;;
12912;SDS011;6524;51.368;11.984;2024-03-07T07:09:27;41.97;;;25.58;;
12912;SDS011;6524;51.368;11.984;2024-03-07T07:14:28;39.67;;;24.90;;
12912;SDS011;6524;51.368;11.984;2024-03-07T07:19:29;36.28;;;25.23;;
12912;SDS011;6524;51.368;11.984;2024-03-07T07:24:29;33.75;;;24.52;;
12912;SDS011;6524;51.368;11.984;2024-03-07T07:29:34;32.30;;;24.63;;
12912;SDS011;6524;51.368;11.984;2024-03-07T07:34:34;32.42;;;24.70;;
12912;SDS011;6524;51.368;11.984;2024-03-07T07:39:35;29.50;;;25.20;;
12912;SDS011;6524;51.368;11.984;2024-03-07T07:44:35;29.65;;;25.63;;
12912;SDS011;6524;51.368;11.984;2024-03-07T07:49:36;29.20;;;26.10;;
12912;SDS011;6524;51.368;11.984;2024-03-07T07:54:41;27.50;;;24.45;;
12912;SDS011;6524;51.368;11.984;2024-03-07T07:59:42;26.98;;;22.25;;
12912;SDS011;6524;51.368;11.984;2024-03-07T08:04:43;22.27;;;19.97;;
12912;SDS011;6524;51.368;11.984;2024-03-07T08:09:43;21.75;;;19.55;;
12912;SDS011;6524;51.368;11.984;2024-03-07T08:14:44;20.88;;;18.88;;
12912;SDS011;6524;51.368;11.984;2024-03-07T08:19:45;20.13;;;17.73;;
12912;SDS011;6524;51.368;11.984;2024-03-07T08:24:46;18.15;;;16.25;;
12912;SDS011;6524;51.368;11.984;2024-03-07T08:29:47;16.48;;;14.98;;
12912;SDS011;6524;51.368;11.984;2024-03-07T08:34:47;15.40;;;13.82;;
12912;SDS011;6524;51.368;11.984;2024-03-07T08:39:48;15.50;;;14.00;;
12912;SDS011;6524;51.368;11.984;2024-03-07T08:44:48;13.70;;;12.35;;
12912;SDS011;6524;51.368;11.984;2024-03-07T08:49:48;14.73;;;13.23;;
12912;SDS011;6524;51.368;11.984;2024-03-07T08:54:49;16.10;;;13.93;;
12912;SDS011;6524;51.368;11.984;2024-03-07T08:59:49;15.73;;;13.73;;
12912;SDS011;6524;51.368;11.984;2024-03-07T09:04:50;14.15;;;12.68;;
12912;SDS011;6524;51.368;11.984;2024-03-07T09:09:50;13.32;;;11.80;;
12912;SDS011;6524;51.368;11.984;2024-03-07T09:14:51;13.38;;;11.82;;
12912;SDS011;6524;51.368;11.984;2024-03-07T09:19:53;12.35;;;11.15;;
12912;SDS011;6524;51.368;11.984;2024-03-07T09:24:53;11.85;;;10.63;;
12912;SDS011;6524;51.368;11.984;2024-03-07T09:29:53;11.43;;;10.13;;
12912;SDS011;6524;51.368;11.984;2024-03-07T09:34:53;12.02;;;10.82;;
12912;SDS011;6524;51.368;11.984;2024-03-07T09:39:54;12.57;;;11.20;;
12912;SDS011;6524;51.368;11.984;2024-03-07T09:44:55;14.15;;;11.32;;
12912;SDS011;6524;51.368;11.984;2024-03-07T09:49:58;12.75;;;11.40;;
12912;SDS011;6524;51.368;11.984;2024-03-07T09:55:00;12.13;;;10.82;;
12912;SDS011;6524;51.368;11.984;2024-03-07T10:00:03;12.30;;;10.90;;
12912;SDS011;6524;51.368;11.984;2024-03-07T10:05:06;13.57;;;11.88;;
12912;SDS011;6524;51.368;11.984;2024-03-07T10:10:15;12.93;;;11.10;;
12912;SDS011;6524;51.368;11.984;2024-03-07T10:15:16;11.90;;;10.63;;
12912;SDS011;6524;51.368;11.984;2024-03-07T10:20:18;12.90;;;11.60;;
12912;SDS011;6524;51.368;11.984;2024-03-07T10:25:22;12.15;;;10.95;;
12912;SDS011;6524;51.368;11.984;2024-03-07T10:30:26;11.70;;;10.65;;
12912;SDS011;6524;51.368;11.984;2024-03-07T10:35:27;12.05;;;10.75;;
12912;SDS011;6524;51.368;11.984;2024-03-07T10:40:29;11.80;;;10.60;;
12912;SDS011;6524;51.368;11.984;2024-03-07T10:45:30;14.93;;;11.50;;
12912;SDS011;6524;51.368;11.984;2024-03-07T10:50:51;12.90;;;10.93;;
12912;SDS011;6524;51.368;11.984;2024-03-07T11:01:35;13.80;;;11.63;;
12912;SDS011;6524;51.368;11.984;2024-03-07T11:06:45;14.20;;;12.25;;
12912;SDS011;6524;51.368;11.984;2024-03-07T11:11:45;14.65;;;12.50;;
12912;SDS011;6524;51.368;11.984;2024-03-07T11:16:46;15.90;;;13.77;;
12912;SDS011;6524;51.368;11.984;2024-03-07T11:21:48;16.33;;;13.55;;
12912;SDS011;6524;51.368;11.984;2024-03-07T11:26:48;14.85;;;12.88;;
12912;SDS011;6524;51.368;11.984;2024-03-07T11:31:54;15.57;;;13.02;;
12912;SDS011;6524;51.368;11.984;2024-03-07T11:36:55;13.55;;;12.00;;
12912;SDS011;6524;51.368;11.984;2024-03-07T11:41:57;14.50;;;11.88;;
12912;SDS011;6524;51.368;11.984;2024-03-07T11:46:57;13.95;;;12.48;;
12912;SDS011;6524;51.368;11.984;2024-03-07T11:51:59;14.50;;;12.70;;
12912;SDS011;6524;51.368;11.984;2024-03-07T11:57:01;13.57;;;12.18;;
12912;SDS011;6524;51.368;11.984;2024-03-07T12:02:13;13.82;;;12.30;;
12912;SDS011;6524;51.368;11.984;2024-03-07T12:07:18;14.23;;;12.73;;
12912;SDS011;6524;51.368;11.984;2024-03-07T12:12:22;14.45;;;12.95;;
12912;SDS011;6524;51.368;11.984;2024-03-07T12:17:25;16.05;;;14.35;;
12912;SDS011;6524;51.368;11.984;2024-03-07T12:22:29;15.75;;;14.15;;
12912;SDS011;6524;51.368;11.984;2024-03-07T12:27:29;18.02;;;14.65;;
12912;SDS011;6524;51.368;11.984;2024-03-07T12:32:30;16.30;;;14.45;;
12912;SDS011;6524;51.368;11.984;2024-03-07T12:37:34;16.73;;;14.52;;
12912;SDS011;6524;51.368;11.984;2024-03-07T12:42:35;16.88;;;14.48;;
12912;SDS011;6524;51.368;11.984;2024-03-07T12:47:36;17.23;;;14.65;;
12912;SDS011;6524;51.368;11.984;2024-03-07T12:52:37;15.30;;;13.65;;
12912;SDS011;6524;51.368;11.984;2024-03-07T12:57:38;17.58;;;14.52;;
12912;SDS011;6524;51.368;11.984;2024-03-07T13:02:40;17.80;;;15.32;;
12912;SDS011;6524;51.368;11.984;2024-03-07T13:07:45;19.13;;;15.57;;
12912;SDS011;6524;51.368;11.984;2024-03-07T13:12:50;18.40;;;15.07;;
12912;SDS011;6524;51.368;11.984;2024-03-07T13:17:52;19.27;;;15.27;;
12912;SDS011;6524;51.368;11.984;2024-03-07T13:22:53;18.20;;;14.23;;
12912;SDS011;6524;51.368;11.984;2024-03-07T13:27:57;19.13;;;15.23;;
12912;SDS011;6524;51.368;11.984;2024-03-07T13:33:10;19.90;;;15.82;;
12912;SDS011;6524;51.368;11.984;2024-03-07T13:38:12;18.67;;;14.85;;
12912;SDS011;6524;51.368;11.984;2024-03-07T13:43:16;16.98;;;14.10;;
12912;SDS011;6524;51.368;11.984;2024-03-07T13:48:17;19.58;;;14.68;;
12912;SDS011;6524;51.368;11.984;2024-03-07T13:53:17;17.17;;;14.18;;
12912;SDS011;6524;51.368;11.984;2024-03-07T14:26:02;17.42;;;14.10;;
12912;SDS011;6524;51.368;11.984;2024-03-07T14:31:26;16.42;;;14.20;;
12912;SDS011;6524;51.368;11.984;2024-03-07T14:37:13;16.77;;;14.10;;
12912;SDS011;6524;51.368;11.984;2024-03-07T14:42:04;15.70;;;13.98;;
12912;SDS011;6524;51.368;11.984;2024-03-07T14:47:09;17.13;;;14.93;;
12912;SDS011;6524;51.368;11.984;2024-03-07T14:52:11;16.20;;;14.25;;
12912;SDS011;6524;51.368;11.984;2024-03-07T14:57:12;16.30;;;13.73;;
12912;SDS011;6524;51.368;11.984;2024-03-07T15:02:13;16.80;;;13.82;;
12912;SDS011;6524;51.368;11.984;2024-03-07T15:07:14;18.52;;;13.70;;
12912;SDS011;6524;51.368;11.984;2024-03-07T15:12:17;16.15;;;13.55;;
12912;SDS011;6524;51.368;11.984;2024-03-07T15:17:18;17.05;;;14.23;;
12912;SDS011;6524;51.368;11.984;2024-03-07T15:22:18;19.40;;;14.98;;
12912;SDS011;6524;51.368;11.984;2024-03-07T15:27:21;16.80;;;13.77;;
12912;SDS011;6524;51.368;11.984;2024-03-07T15:32:21;19.33;;;15.35;;
12912;SDS011;6524;51.368;11.984;2024-03-07T15:37:22;20.02;;;15.43;;
12912;SDS011;6524;51.368;11.984;2024-03-07T15:42:23;18.92;;;15.65;;
12912;SDS011;6524;51.368;11.984;2024-03-07T15:47:24;20.48;;;16.98;;
12912;SDS011;6524;51.368;11.984;2024-03-07T15:52:25;18.92;;;15.48;;
12912;SDS011;6524;51.368;11.984;2024-03-07T15:57:26;19.48;;;15.20;;
12912;SDS011;6524;51.368;11.984;2024-03-07T16:02:27;20.45;;;15.52;;
12912;SDS011;6524;51.368;11.984;2024-03-07T16:07:28;21.23;;;16.27;;
12912;SDS011;6524;51.368;11.984;2024-03-07T16:12:31;19.48;;;15.18;;
12912;SDS011;6524;51.368;11.984;2024-03-07T16:17:33;20.40;;;15.48;;
12912;SDS011;6524;51.368;11.984;2024-03-07T16:22:36;17.10;;;14.32;;
12912;SDS011;6524;51.368;11.984;2024-03-07T16:27:39;18.27;;;15.25;;
12912;SDS011;6524;51.368;11.984;2024-03-07T16:32:43;17.17;;;14.23;;
12912;SDS011;6524;51.368;11.984;2024-03-07T16:37:50;22.83;;;16.63;;
12912;SDS011;6524;51.368;11.984;2024-03-07T16:42:58;20.20;;;15.90;;
12912;SDS011;6524;51.368;11.984;2024-03-07T16:48:00;19.13;;;15.55;;
12912;SDS011;6524;51.368;11.984;2024-03-07T16:53:02;22.58;;;16.40;;
12912;SDS011;6524;51.368;11.984;2024-03-07T16:58:07;20.70;;;16.30;;
12912;SDS011;6524;51.368;11.984;2024-03-07T17:03:14;23.42;;;15.82;;
12912;SDS011;6524;51.368;11.984;2024-03-07T17:08:15;23.77;;;15.80;;
12912;SDS011;6524;51.368;11.984;2024-03-07T17:13:16;20.50;;;15.23;;
12912;SDS011;6524;51.368;11.984;2024-03-07T17:18:17;20.23;;;15.40;;
12912;SDS011;6524;51.368;11.984;2024-03-07T17:23:20;19.38;;;15.57;;
12912;SDS011;6524;51.368;11.984;2024-03-07T17:28:38;21.97;;;15.80;;
12912;SDS011;6524;51.368;11.984;2024-03-07T17:33:46;23.15;;;16.30;;
12912;SDS011;6524;51.368;11.984;2024-03-07T17:38:50;19.98;;;16.23;;
12912;SDS011;6524;51.368;11.984;2024-03-07T17:43:51;22.50;;;16.83;;
12912;SDS011;6524;51.368;11.984;2024-03-07T17:48:53;22.13;;;16.73;;
12912;SDS011;6524;51.368;11.984;2024-03-07T17:53:54;20.02;;;16.83;;
12912;SDS011;6524;51.368;11.984;2024-03-07T17:58:57;22.35;;;16.88;;
12912;SDS011;6524;51.368;11.984;2024-03-07T18:03:58;22.70;;;17.23;;
12912;SDS011;6524;51.368;11.984;2024-03-07T18:09:07;21.63;;;16.50;;
12912;SDS011;6524;51.368;11.984;2024-03-07T18:14:20;21.77;;;16.33;;
12912;SDS011;6524;51.368;11.984;2024-03-07T18:19:23;23.77;;;16.50;;
12912;SDS011;6524;51.368;11.984;2024-03-07T18:24:26;21.13;;;16.15;;
12912;SDS011;6524;51.368;11.984;2024-03-07T18:29:27;21.48;;;16.23;;
12912;SDS011;6524;51.368;11.984;2024-03-07T18:34:28;23.63;;;17.00;;
12912;SDS011;6524;51.368;11.984;2024-03-07T18:39:31;22.73;;;17.77;;
12912;SDS011;6524;51.368;11.984;2024-03-07T18:44:33;27.42;;;18.67;;
12912;SDS011;6524;51.368;11.984;2024-03-07T18:49:35;23.05;;;17.63;;
12912;SDS011;6524;51.368;11.984;2024-03-07T18:54:35;22.20;;;17.67;;
12912;SDS011;6524;51.368;11.984;2024-03-07T18:59:38;21.23;;;17.00;;
12912;SDS011;6524;51.368;11.984;2024-03-07T19:04:39;23.77;;;17.80;;
12912;SDS011;6524;51.368;11.984;2024-03-07T19:09:43;24.83;;;19.63;;
12912;SDS011;6524;51.368;11.984;2024-03-07T19:14:43;24.83;;;18.80;;
12912;SDS011;6524;51.368;11.984;2024-03-07T19:19:51;24.87;;;19.60;;
12912;SDS011;6524;51.368;11.984;2024-03-07T19:24:57;25.57;;;19.40;;
12912;SDS011;6524;51.368;11.984;2024-03-07T19:30:04;26.92;;;20.10;;
12912;SDS011;6524;51.368;11.984;2024-03-07T19:35:16;27.83;;;19.27;;
12912;SDS011;6524;51.368;11.984;2024-03-07T19:40:30;25.90;;;19.63;;
12912;SDS011;6524;51.368;11.984;2024-03-07T19:45:30;24.43;;;18.80;;
12912;SDS011;6524;51.368;11.984;2024-03-07T19:50:33;26.33;;;19.73;;
12912;SDS011;6524;51.368;11.984;2024-03-07T19:55:38;26.60;;;19.30;;
12912;SDS011;6524;51.368;11.984;2024-03-07T20:00:42;26.07;;;19.37;;
12912;SDS011;6524;51.368;11.984;2024-03-07T20:05:46;23.80;;;18.47;;
12912;SDS011;6524;51.368;11.984;2024-03-07T20:10:50;25.90;;;19.07;;
12912;SDS011;6524;51.368;11.984;2024-03-07T20:15:51;24.70;;;18.83;;
12912;SDS011;6524;51.368;11.984;2024-03-07T20:20:59;25.60;;;19.90;;
12912;SDS011;6524;51.368;11.984;2024-03-07T20:26:02;22.90;;;18.10;;
12912;SDS011;6524;51.368;11.984;2024-03-07T20:31:03;23.73;;;17.87;;
12912;SDS011;6524;51.368;11.984;2024-03-07T20:36:08;26.27;;;19.03;;
12912;SDS011;6524;51.368;11.984;2024-03-07T20:41:08;26.60;;;19.53;;
12912;SDS011;6524;51.368;11.984;2024-03-07T20:46:11;32.63;;;20.50;;
12912;SDS011;6524;51.368;11.984;2024-03-07T20:51:11;26.87;;;18.37;;
12912;SDS011;6524;51.368;11.984;2024-03-07T20:56:14;26.87;;;18.10;;
12912;SDS011;6524;51.368;11.984;2024-03-07T21:01:17;24.93;;;17.27;;
12912;SDS011;6524;51.368;11.984;2024-03-07T21:06:17;25.23;;;18.90;;
12912;SDS011;6524;51.368;11.984;2024-03-07T21:11:23;26.87;;;18.60;;
12912;SDS011;6524;51.368;11.984;2024-03-07T21:16:27;26.13;;;18.00;;
12912;SDS011;6524;51.368;11.984;2024-03-07T21:21:28;26.63;;;18.53;;
12912;SDS011;6524;51.368;11.984;2024-03-07T21:26:28;25.20;;;19.07;;
12912;SDS011;6524;51.368;11.984;2024-03-07T21:31:28;26.73;;;18.77;;
12912;SDS011;6524;51.368;11.984;2024-03-07T21:36:29;24.63;;;18.97;;
12912;SDS011;6524;51.368;11.984;2024-03-07T21:41:29;27.17;;;18.47;;
12912;SDS011;6524;51.368;11.984;2024-03-07T21:46:31;27.30;;;19.47;;
12912;SDS011;6524;51.368;11.984;2024-03-07T21:51:33;26.63;;;18.90;;
12912;SDS011;6524;51.368;11.984;2024-03-07T21:56:35;26.70;;;19.67;;
12912;SDS011;6524;51.368;11.984;2024-03-07T22:01:35;26.23;;;19.33;;
12912;SDS011;6524;51.368;11.984;2024-03-07T22:06:39;27.57;;;18.97;;
12912;SDS011;6524;51.368;11.984;2024-03-07T22:11:45;26.83;;;18.60;;
12912;SDS011;6524;51.368;11.984;2024-03-07T22:16:53;27.03;;;18.97;;
12912;SDS011;6524;51.368;11.984;2024-03-07T22:21:54;25.90;;;18.87;;
12912;SDS011;6524;51.368;11.984;2024-03-07T22:26:56;27.67;;;18.53;;
12912;SDS011;6524;51.368;11.984;2024-03-07T22:31:56;26.27;;;18.23;;
12912;SDS011;6524;51.368;11.984;2024-03-07T22:36:57;27.87;;;19.20;;
12912;SDS011;6524;51.368;11.984;2024-03-07T22:41:57;28.43;;;19.50;;
12912;SDS011;6524;51.368;11.984;2024-03-07T22:46:58;27.57;;;19.03;;
12912;SDS011;6524;51.368;11.984;2024-03-07T22:51:58;27.93;;;19.43;;
12912;SDS011;6524;51.368;11.984;2024-03-07T22:56:58;24.43;;;18.60;;
12912;SDS011;6524;51.368;11.984;2024-03-07T23:01:59;26.53;;;19.10;;
12912;SDS011;6524;51.368;11.984;2024-03-07T23:07:00;27.80;;;19.00;;
12912;SDS011;6524;51.368;11.984;2024-03-07T23:12:01;29.27;;;19.80;;
12912;SDS011;6524;51.368;11.984;2024-03-07T23:17:01;29.17;;;19.37;;
12912;SDS011;6524;51.368;11.984;2024-03-07T23:22:02;29.37;;;19.23;;
12912;SDS011;6524;51.368;11.984;2024-03-07T23:27:07;29.30;;;19.37;;
12912;SDS011;6524;51.368;11.984;2024-03-07T23:32:09;30.90;;;20.80;;
12912;SDS011;6524;51.368;11.984;2024-03-07T23:37:10;27.73;;;19.60;;
12912;SDS011;6524;51.368;11.984;2024-03-07T23:42:14;27.93;;;20.17;;
12912;SDS011;6524;51.368;11.984;2024-03-07T23:47:14;28.30;;;20.13;;
12912;SDS011;6524;51.368;11.984;2024-03-07T23:52:14;29.30;;;19.97;;
12912;SDS011;6524;51.368;11.984;2024-03-07T23:57:16;29.17;;;20.77;;
